sensor_id;sensor_type;location;lat;lon;timestamp;pressure;altitude;pressure_sealevel;temperature;humidity
11190;BME280;5651;50.926;4.718;2023-02-10T00:01:18;103492.84;;;4.79;83.34
11190;BME280;5651;50.926;4.718;2023-02-10T00:03:44;103486.63;;;4.75;83.40
11190;BME280;5651;50.926;4.718;2023-02-10T00:06:11;103486.31;;;4.71;84.51
11190;BME280;5651;50.926;4.718;2023-02-10T00:08:37;103485.72;;;4.62;84.97
11190;BME280;5651;50.926;4.718;2023-02-10T00:11:06;103489.72;;;4.56;85.49
11190;BME280;5651;50.926;4.718;2023-02-10T00:13:32;103501.06;;;4.58;85.15
11190;BME280;5651;50.926;4.718;2023-02-10T00:16:02;103503.84;;;4.48;85.80
11190;BME280;5651;50.926;4.718;2023-02-10T00:18:28;103506.50;;;4.50;84.86
11190;BME280;5651;50.926;4.718;2023-02-10T00:20:55;103507.59;;;4.53;84.24
11190;BME280;5651;50.926;4.718;2023-02-10T00:23:20;103501.34;;;4.50;83.97
11190;BME280;5651;50.926;4.718;2023-02-10T00:25:46;103505.81;;;4.66;82.40
11190;BME280;5651;50.926;4.718;2023-02-10T00:28:12;103513.47;;;4.64;82.58
11190;BME280;5651;50.926;4.718;2023-02-10T00:30:38;103510.38;;;4.56;82.48
11190;BME280;5651;50.926;4.718;2023-02-10T00:33:04;103509.88;;;4.62;82.47
11190;BME280;5651;50.926;4.718;2023-02-10T00:35:31;103508.50;;;4.54;84.34
11190;BME280;5651;50.926;4.718;2023-02-10T00:37:57;103502.25;;;4.50;83.88
11190;BME280;5651;50.926;4.718;2023-02-10T00:40:22;103505.91;;;4.54;83.38
11190;BME280;5651;50.926;4.718;2023-02-10T00:42:48;103509.78;;;4.47;84.25
11190;BME280;5651;50.926;4.718;2023-02-10T00:45:14;103505.25;;;4.43;85.10
11190;BME280;5651;50.926;4.718;2023-02-10T00:47:39;103503.44;;;4.42;84.70
11190;BME280;5651;50.926;4.718;2023-02-10T00:50:05;103509.41;;;4.41;84.45
11190;BME280;5651;50.926;4.718;2023-02-10T00:52:32;103503.66;;;4.45;83.63
11190;BME280;5651;50.926;4.718;2023-02-10T00:54:57;103499.75;;;4.52;82.45
11190;BME280;5651;50.926;4.718;2023-02-10T00:57:23;103510.56;;;4.46;83.62
11190;BME280;5651;50.926;4.718;2023-02-10T00:59:49;103509.78;;;4.47;82.99
11190;BME280;5651;50.926;4.718;2023-02-10T01:02:15;103515.16;;;4.50;82.22
11190;BME280;5651;50.926;4.718;2023-02-10T01:04:41;103512.25;;;4.59;81.23
11190;BME280;5651;50.926;4.718;2023-02-10T01:07:06;103507.47;;;4.65;81.37
11190;BME280;5651;50.926;4.718;2023-02-10T01:09:32;103513.75;;;4.55;82.20
11190;BME280;5651;50.926;4.718;2023-02-10T01:11:58;103517.66;;;4.49;82.40
11190;BME280;5651;50.926;4.718;2023-02-10T01:14:24;103518.16;;;4.43;83.06
11190;BME280;5651;50.926;4.718;2023-02-10T01:16:50;103529.06;;;4.39;84.44
11190;BME280;5651;50.926;4.718;2023-02-10T01:19:16;103529.44;;;4.32;86.38
11190;BME280;5651;50.926;4.718;2023-02-10T01:21:41;103528.56;;;4.31;85.59
11190;BME280;5651;50.926;4.718;2023-02-10T01:24:07;103526.78;;;4.30;85.21
11190;BME280;5651;50.926;4.718;2023-02-10T01:26:33;103532.66;;;4.27;86.16
11190;BME280;5651;50.926;4.718;2023-02-10T01:28:59;103536.88;;;4.27;86.78
11190;BME280;5651;50.926;4.718;2023-02-10T01:31:26;103534.81;;;4.21;87.77
11190;BME280;5651;50.926;4.718;2023-02-10T01:33:53;103545.63;;;4.29;85.53
11190;BME280;5651;50.926;4.718;2023-02-10T01:36:21;103540.56;;;4.31;85.66
11190;BME280;5651;50.926;4.718;2023-02-10T01:38:47;103542.88;;;4.26;86.36
11190;BME280;5651;50.926;4.718;2023-02-10T01:41:17;103545.53;;;4.27;85.57
11190;BME280;5651;50.926;4.718;2023-02-10T01:46:30;103551.91;;;4.33;83.89
11190;BME280;5651;50.926;4.718;2023-02-10T01:49:00;103560.41;;;4.32;83.39
11190;BME280;5651;50.926;4.718;2023-02-10T01:51:33;103560.03;;;4.25;83.76
11190;BME280;5651;50.926;4.718;2023-02-10T01:54:02;103570.56;;;4.28;82.77
11190;BME280;5651;50.926;4.718;2023-02-10T01:56:28;103567.69;;;4.24;82.38
11190;BME280;5651;50.926;4.718;2023-02-10T01:58:54;103556.97;;;4.18;83.62
11190;BME280;5651;50.926;4.718;2023-02-10T02:01:19;103565.97;;;4.11;85.07
11190;BME280;5651;50.926;4.718;2023-02-10T02:03:45;103565.56;;;4.05;86.05
11190;BME280;5651;50.926;4.718;2023-02-10T02:06:11;103553.16;;;3.99;86.21
11190;BME280;5651;50.926;4.718;2023-02-10T02:08:37;103571.03;;;3.96;86.01
11190;BME280;5651;50.926;4.718;2023-02-10T02:16:58;103567.66;;;3.72;89.17
11190;BME280;5651;50.926;4.718;2023-02-10T02:34:13;103549.19;;;3.65;88.53
11190;BME280;5651;50.926;4.718;2023-02-10T02:36:47;103540.44;;;3.63;88.42
11190;BME280;5651;50.926;4.718;2023-02-10T02:39:14;103535.78;;;3.58;89.65
11190;BME280;5651;50.926;4.718;2023-02-10T02:41:40;103535.34;;;3.52;90.64
11190;BME280;5651;50.926;4.718;2023-02-10T02:44:06;103533.38;;;3.47;90.44
11190;BME280;5651;50.926;4.718;2023-02-10T02:47:12;103531.47;;;3.45;90.12
11190;BME280;5651;50.926;4.718;2023-02-10T02:49:50;103531.25;;;3.42;89.23
11190;BME280;5651;50.926;4.718;2023-02-10T02:52:26;103530.75;;;3.34;90.35
11190;BME280;5651;50.926;4.718;2023-02-10T02:58:01;103524.53;;;3.19;89.37
11190;BME280;5651;50.926;4.718;2023-02-10T03:00:30;103537.00;;;3.12;89.59
11190;BME280;5651;50.926;4.718;2023-02-10T03:02:57;103538.81;;;3.01;91.14
11190;BME280;5651;50.926;4.718;2023-02-10T03:05:29;103545.44;;;2.98;89.04
11190;BME280;5651;50.926;4.718;2023-02-10T03:07:56;103542.28;;;3.02;87.68
11190;BME280;5651;50.926;4.718;2023-02-10T03:10:22;103538.16;;;2.92;87.45
11190;BME280;5651;50.926;4.718;2023-02-10T03:12:47;103549.69;;;2.85;89.64
11190;BME280;5651;50.926;4.718;2023-02-10T03:15:13;103549.94;;;2.77;90.90
11190;BME280;5651;50.926;4.718;2023-02-10T03:17:39;103550.63;;;2.74;88.28
11190;BME280;5651;50.926;4.718;2023-02-10T03:20:06;103546.44;;;2.76;86.63
11190;BME280;5651;50.926;4.718;2023-02-10T03:22:32;103550.28;;;2.81;87.20
11190;BME280;5651;50.926;4.718;2023-02-10T03:24:58;103549.25;;;2.79;87.70
11190;BME280;5651;50.926;4.718;2023-02-10T03:27:24;103549.34;;;2.81;88.08
11190;BME280;5651;50.926;4.718;2023-02-10T03:29:50;103550.63;;;2.74;87.61
11190;BME280;5651;50.926;4.718;2023-02-10T03:32:18;103549.59;;;2.72;88.95
11190;BME280;5651;50.926;4.718;2023-02-10T03:34:44;103557.25;;;2.59;87.69
11190;BME280;5651;50.926;4.718;2023-02-10T03:37:10;103564.63;;;2.54;87.84
11190;BME280;5651;50.926;4.718;2023-02-10T03:39:36;103567.53;;;2.47;88.41
11190;BME280;5651;50.926;4.718;2023-02-10T03:42:02;103561.16;;;2.42;87.93
11190;BME280;5651;50.926;4.718;2023-02-10T03:44:28;103553.97;;;2.37;87.34
11190;BME280;5651;50.926;4.718;2023-02-10T03:46:54;103564.84;;;2.33;86.95
11190;BME280;5651;50.926;4.718;2023-02-10T03:49:20;103570.53;;;2.29;88.13
11190;BME280;5651;50.926;4.718;2023-02-10T03:51:46;103568.75;;;2.28;86.99
11190;BME280;5651;50.926;4.718;2023-02-10T03:54:12;103568.63;;;2.27;87.41
11190;BME280;5651;50.926;4.718;2023-02-10T03:56:38;103570.97;;;2.24;86.29
11190;BME280;5651;50.926;4.718;2023-02-10T03:59:04;103558.69;;;2.19;85.52
11190;BME280;5651;50.926;4.718;2023-02-10T04:01:30;103566.81;;;2.14;85.31
11190;BME280;5651;50.926;4.718;2023-02-10T04:03:56;103567.16;;;2.06;85.67
11190;BME280;5651;50.926;4.718;2023-02-10T04:06:22;103576.97;;;2.00;85.87
11190;BME280;5651;50.926;4.718;2023-02-10T04:08:48;103577.19;;;1.92;85.12
11190;BME280;5651;50.926;4.718;2023-02-10T04:11:14;103569.66;;;1.83;84.86
11190;BME280;5651;50.926;4.718;2023-02-10T04:13:40;103580.16;;;1.74;85.08
11190;BME280;5651;50.926;4.718;2023-02-10T04:16:13;103593.97;;;1.64;85.00
11190;BME280;5651;50.926;4.718;2023-02-10T04:18:39;103589.81;;;1.54;84.45
11190;BME280;5651;50.926;4.718;2023-02-10T04:21:08;103594.22;;;1.45;84.45
11190;BME280;5651;50.926;4.718;2023-02-10T04:23:35;103595.31;;;1.37;84.92
11190;BME280;5651;50.926;4.718;2023-02-10T04:26:01;103592.00;;;1.27;84.89
11190;BME280;5651;50.926;4.718;2023-02-10T04:28:27;103594.63;;;1.17;84.33
11190;BME280;5651;50.926;4.718;2023-02-10T04:30:54;103593.16;;;1.09;84.89
11190;BME280;5651;50.926;4.718;2023-02-10T04:33:20;103598.56;;;1.02;85.19
11190;BME280;5651;50.926;4.718;2023-02-10T04:35:49;103588.44;;;0.93;84.43
11190;BME280;5651;50.926;4.718;2023-02-10T04:38:15;103589.28;;;0.82;84.86
11190;BME280;5651;50.926;4.718;2023-02-10T04:40:42;103595.47;;;0.73;85.82
11190;BME280;5651;50.926;4.718;2023-02-10T04:43:09;103591.25;;;0.63;85.80
11190;BME280;5651;50.926;4.718;2023-02-10T04:45:35;103596.41;;;0.53;85.60
11190;BME280;5651;50.926;4.718;2023-02-10T04:48:00;103594.75;;;0.43;85.68
11190;BME280;5651;50.926;4.718;2023-02-10T04:50:26;103599.25;;;0.36;85.64
11190;BME280;5651;50.926;4.718;2023-02-10T04:52:52;103603.88;;;0.29;85.10
11190;BME280;5651;50.926;4.718;2023-02-10T04:55:18;103600.81;;;0.23;84.27
11190;BME280;5651;50.926;4.718;2023-02-10T04:57:43;103600.53;;;0.20;84.80
11190;BME280;5651;50.926;4.718;2023-02-10T05:00:10;103594.53;;;0.20;87.23
11190;BME280;5651;50.926;4.718;2023-02-10T05:02:36;103601.06;;;0.16;85.55
11190;BME280;5651;50.926;4.718;2023-02-10T05:05:02;103600.03;;;0.14;85.22
11190;BME280;5651;50.926;4.718;2023-02-10T05:07:28;103597.47;;;0.14;86.14
11190;BME280;5651;50.926;4.718;2023-02-10T05:09:53;103591.84;;;0.18;87.94
11190;BME280;5651;50.926;4.718;2023-02-10T05:12:19;103593.63;;;0.19;88.56
11190;BME280;5651;50.926;4.718;2023-02-10T05:14:45;103591.31;;;0.22;87.95
11190;BME280;5651;50.926;4.718;2023-02-10T05:17:10;103586.97;;;0.21;86.95
11190;BME280;5651;50.926;4.718;2023-02-10T05:19:36;103587.06;;;0.23;86.17
11190;BME280;5651;50.926;4.718;2023-02-10T05:22:02;103583.75;;;0.24;84.82
11190;BME280;5651;50.926;4.718;2023-02-10T05:24:28;103581.19;;;0.24;84.43
11190;BME280;5651;50.926;4.718;2023-02-10T05:26:53;103581.84;;;0.21;85.21
11190;BME280;5651;50.926;4.718;2023-02-10T05:29:19;103585.44;;;0.23;85.66
11190;BME280;5651;50.926;4.718;2023-02-10T05:31:45;103584.66;;;0.24;88.78
11190;BME280;5651;50.926;4.718;2023-02-10T05:34:10;103585.69;;;0.26;89.62
11190;BME280;5651;50.926;4.718;2023-02-10T05:36:36;103591.69;;;0.27;88.92
11190;BME280;5651;50.926;4.718;2023-02-10T05:39:02;103595.03;;;0.26;86.95
11190;BME280;5651;50.926;4.718;2023-02-10T05:41:46;103589.25;;;0.28;87.03
11190;BME280;5651;50.926;4.718;2023-02-10T05:44:12;103586.41;;;0.36;90.05
11190;BME280;5651;50.926;4.718;2023-02-10T05:46:38;103585.28;;;0.42;92.74
11190;BME280;5651;50.926;4.718;2023-02-10T05:49:04;103591.16;;;0.41;89.98
11190;BME280;5651;50.926;4.718;2023-02-10T05:51:29;103580.25;;;0.44;90.75
11190;BME280;5651;50.926;4.718;2023-02-10T05:53:55;103588.88;;;0.44;89.31
11190;BME280;5651;50.926;4.718;2023-02-10T05:56:21;103593.72;;;0.52;89.34
11190;BME280;5651;50.926;4.718;2023-02-10T05:58:46;103593.03;;;0.65;89.98
11190;BME280;5651;50.926;4.718;2023-02-10T06:01:12;103598.03;;;0.73;91.90
11190;BME280;5651;50.926;4.718;2023-02-10T06:03:38;103594.53;;;0.73;92.58
11190;BME280;5651;50.926;4.718;2023-02-10T06:06:04;103602.13;;;0.71;91.02
11190;BME280;5651;50.926;4.718;2023-02-10T06:08:30;103591.22;;;0.74;92.14
11190;BME280;5651;50.926;4.718;2023-02-10T06:10:55;103595.69;;;0.76;92.13
11190;BME280;5651;50.926;4.718;2023-02-10T06:13:21;103601.47;;;0.74;92.43
11190;BME280;5651;50.926;4.718;2023-02-10T06:15:47;103600.69;;;0.75;91.70
11190;BME280;5651;50.926;4.718;2023-02-10T06:18:13;103596.34;;;0.74;92.24
11190;BME280;5651;50.926;4.718;2023-02-10T06:20:39;103603.91;;;0.72;92.84
11190;BME280;5651;50.926;4.718;2023-02-10T06:23:05;103598.91;;;0.74;93.08
11190;BME280;5651;50.926;4.718;2023-02-10T06:25:31;103593.78;;;0.74;93.20
11190;BME280;5651;50.926;4.718;2023-02-10T06:27:56;103591.22;;;0.74;95.46
11190;BME280;5651;50.926;4.718;2023-02-10T06:30:22;103601.72;;;0.77;96.38
11190;BME280;5651;50.926;4.718;2023-02-10T06:32:48;103596.47;;;0.75;95.43
11190;BME280;5651;50.926;4.718;2023-02-10T06:35:13;103606.88;;;0.77;94.53
11190;BME280;5651;50.926;4.718;2023-02-10T06:37:39;103599.16;;;0.77;96.36
11190;BME280;5651;50.926;4.718;2023-02-10T06:40:06;103611.72;;;0.74;97.34
11190;BME280;5651;50.926;4.718;2023-02-10T06:42:32;103614.03;;;0.81;96.86
11190;BME280;5651;50.926;4.718;2023-02-10T06:44:58;103610.19;;;0.76;98.28
11190;BME280;5651;50.926;4.718;2023-02-10T06:47:24;103606.88;;;0.77;100.00
11190;BME280;5651;50.926;4.718;2023-02-10T06:49:49;103606.97;;;0.78;100.00
11190;BME280;5651;50.926;4.718;2023-02-10T06:52:15;103602.50;;;0.76;100.00
11190;BME280;5651;50.926;4.718;2023-02-10T06:54:41;103604.53;;;0.80;100.00
11190;BME280;5651;50.926;4.718;2023-02-10T06:57:07;103610.19;;;0.76;100.00
11190;BME280;5651;50.926;4.718;2023-02-10T06:59:33;103606.47;;;0.83;100.00
11190;BME280;5651;50.926;4.718;2023-02-10T07:01:59;103601.44;;;0.84;100.00
11190;BME280;5651;50.926;4.718;2023-02-10T07:04:29;103606.59;;;0.84;100.00
11190;BME280;5651;50.926;4.718;2023-02-10T07:06:56;103615.94;;;0.84;99.48
11190;BME280;5651;50.926;4.718;2023-02-10T07:09:22;103612.09;;;0.89;97.36
11190;BME280;5651;50.926;4.718;2023-02-10T07:11:48;103614.88;;;0.92;97.79
11190;BME280;5651;50.926;4.718;2023-02-10T07:14:14;103619.38;;;0.94;97.48
11190;BME280;5651;50.926;4.718;2023-02-10T07:16:40;103612.41;;;1.04;96.12
11190;BME280;5651;50.926;4.718;2023-02-10T07:19:06;103619.09;;;1.02;96.70
11190;BME280;5651;50.926;4.718;2023-02-10T07:21:31;103629.59;;;1.05;97.11
11190;BME280;5651;50.926;4.718;2023-02-10T07:23:57;103626.63;;;1.10;94.38
11190;BME280;5651;50.926;4.718;2023-02-10T07:26:23;103629.03;;;1.19;93.40
11190;BME280;5651;50.926;4.718;2023-02-10T07:28:49;103628.34;;;1.32;92.62
11190;BME280;5651;50.926;4.718;2023-02-10T07:31:15;103619.97;;;1.35;94.15
11190;BME280;5651;50.926;4.718;2023-02-10T07:33:40;103618.09;;;1.22;96.13
11190;BME280;5651;50.926;4.718;2023-02-10T07:36:07;103627.22;;;1.18;99.58
11190;BME280;5651;50.926;4.718;2023-02-10T07:38:33;103633.94;;;1.16;100.00
11190;BME280;5651;50.926;4.718;2023-02-10T07:41:00;103641.00;;;1.19;99.83
11190;BME280;5651;50.926;4.718;2023-02-10T07:43:25;103628.25;;;1.20;99.52
11190;BME280;5651;50.926;4.718;2023-02-10T07:45:51;103627.38;;;1.20;100.00
11190;BME280;5651;50.926;4.718;2023-02-10T07:48:17;103624.16;;;1.22;100.00
11190;BME280;5651;50.926;4.718;2023-02-10T07:50:43;103626.81;;;1.24;100.00
11190;BME280;5651;50.926;4.718;2023-02-10T07:53:10;103630.25;;;1.35;99.37
11190;BME280;5651;50.926;4.718;2023-02-10T07:55:38;103631.38;;;1.38;100.00
11190;BME280;5651;50.926;4.718;2023-02-10T07:58:05;103634.31;;;1.43;100.00
11190;BME280;5651;50.926;4.718;2023-02-10T08:00:32;103626.34;;;1.40;100.00
11190;BME280;5651;50.926;4.718;2023-02-10T08:02:58;103635.34;;;1.45;100.00
11190;BME280;5651;50.926;4.718;2023-02-10T08:05:24;103642.75;;;1.52;100.00
11190;BME280;5651;50.926;4.718;2023-02-10T08:07:50;103649.13;;;1.57;100.00
11190;BME280;5651;50.926;4.718;2023-02-10T08:10:15;103654.75;;;1.64;100.00
11190;BME280;5651;50.926;4.718;2023-02-10T08:12:41;103666.41;;;1.70;98.68
11190;BME280;5651;50.926;4.718;2023-02-10T08:15:07;103656.72;;;1.78;98.45
11190;BME280;5651;50.926;4.718;2023-02-10T08:17:33;103657.22;;;1.84;99.97
11190;BME280;5651;50.926;4.718;2023-02-10T08:19:59;103660.00;;;1.87;100.00
11190;BME280;5651;50.926;4.718;2023-02-10T08:22:25;103671.56;;;1.93;100.00
11190;BME280;5651;50.926;4.718;2023-02-10T08:24:51;103673.31;;;1.94;100.00
11190;BME280;5651;50.926;4.718;2023-02-10T08:27:17;103667.22;;;2.03;100.00
11190;BME280;5651;50.926;4.718;2023-02-10T08:29:43;103668.47;;;2.09;100.00
11190;BME280;5651;50.926;4.718;2023-02-10T08:32:08;103659.84;;;2.08;100.00
11190;BME280;5651;50.926;4.718;2023-02-10T08:34:34;103660.34;;;2.14;100.00
11190;BME280;5651;50.926;4.718;2023-02-10T08:37:02;103664.25;;;2.21;100.00
11190;BME280;5651;50.926;4.718;2023-02-10T08:39:29;103654.97;;;2.23;100.00
11190;BME280;5651;50.926;4.718;2023-02-10T08:41:55;103652.50;;;2.25;100.00
11190;BME280;5651;50.926;4.718;2023-02-10T08:44:21;103651.84;;;2.27;100.00
11190;BME280;5651;50.926;4.718;2023-02-10T08:46:46;103651.19;;;2.30;100.00
11190;BME280;5651;50.926;4.718;2023-02-10T08:49:12;103652.19;;;2.32;100.00
11190;BME280;5651;50.926;4.718;2023-02-10T08:51:38;103654.22;;;2.36;100.00
11190;BME280;5651;50.926;4.718;2023-02-10T08:54:04;103641.81;;;2.42;100.00
11190;BME280;5651;50.926;4.718;2023-02-10T08:56:30;103657.94;;;2.51;100.00
11190;BME280;5651;50.926;4.718;2023-02-10T08:58:56;103657.19;;;2.64;100.00
11190;BME280;5651;50.926;4.718;2023-02-10T09:01:24;103662.78;;;2.82;100.00
11190;BME280;5651;50.926;4.718;2023-02-10T09:03:54;103650.69;;;2.81;100.00
11190;BME280;5651;50.926;4.718;2023-02-10T09:06:28;103653.38;;;2.95;100.00
11190;BME280;5651;50.926;4.718;2023-02-10T09:08:54;103655.50;;;3.00;100.00
11190;BME280;5651;50.926;4.718;2023-02-10T09:11:21;103650.09;;;3.09;100.00
11190;BME280;5651;50.926;4.718;2023-02-10T09:13:52;103654.38;;;3.21;100.00
11190;BME280;5651;50.926;4.718;2023-02-10T09:16:19;103652.53;;;3.43;100.00
11190;BME280;5651;50.926;4.718;2023-02-10T09:18:44;103656.75;;;3.55;100.00
11190;BME280;5651;50.926;4.718;2023-02-10T09:21:10;103642.16;;;3.55;100.00
11190;BME280;5651;50.926;4.718;2023-02-10T09:23:37;103651.13;;;3.60;100.00
11190;BME280;5651;50.926;4.718;2023-02-10T09:26:02;103659.97;;;3.64;100.00
11190;BME280;5651;50.926;4.718;2023-02-10T09:28:28;103654.91;;;3.65;100.00
11190;BME280;5651;50.926;4.718;2023-02-10T09:30:54;103664.16;;;3.75;100.00
11190;BME280;5651;50.926;4.718;2023-02-10T09:33:21;103661.50;;;3.99;100.00
11190;BME280;5651;50.926;4.718;2023-02-10T09:35:47;103663.38;;;4.02;100.00
11190;BME280;5651;50.926;4.718;2023-02-10T09:38:13;103662.28;;;3.98;100.00
11190;BME280;5651;50.926;4.718;2023-02-10T09:51:52;103681.50;;;3.90;100.00
11190;BME280;5651;50.926;4.718;2023-02-10T09:54:22;103657.19;;;3.86;100.00
11190;BME280;5651;50.926;4.718;2023-02-10T09:56:48;103668.31;;;3.85;100.00
11190;BME280;5651;50.926;4.718;2023-02-10T09:59:17;103669.59;;;3.92;100.00
11190;BME280;5651;50.926;4.718;2023-02-10T10:01:54;103671.13;;;4.02;100.00
11190;BME280;5651;50.926;4.718;2023-02-10T10:04:22;103670.25;;;4.01;100.00
11190;BME280;5651;50.926;4.718;2023-02-10T10:06:50;103673.34;;;4.09;100.00
11190;BME280;5651;50.926;4.718;2023-02-10T10:11:51;103664.75;;;4.22;100.00
11190;BME280;5651;50.926;4.718;2023-02-10T10:22:48;103677.59;;;4.34;100.00
11190;BME280;5651;50.926;4.718;2023-02-10T10:28:40;103678.00;;;4.53;100.00
11190;BME280;5651;50.926;4.718;2023-02-10T10:33:53;103694.53;;;4.69;100.00
11190;BME280;5651;50.926;4.718;2023-02-10T10:36:22;103696.44;;;4.85;100.00
11190;BME280;5651;50.926;4.718;2023-02-10T10:38:54;103697.63;;;4.90;100.00
11190;BME280;5651;50.926;4.718;2023-02-10T10:41:24;103702.63;;;5.00;100.00
11190;BME280;5651;50.926;4.718;2023-02-10T10:43:52;103690.16;;;5.08;100.00
11190;BME280;5651;50.926;4.718;2023-02-10T10:46:57;103697.25;;;5.24;100.00
11190;BME280;5651;50.926;4.718;2023-02-10T10:49:27;103693.34;;;5.17;100.00
11190;BME280;5651;50.926;4.718;2023-02-10T10:51:53;103688.88;;;5.15;100.00
11190;BME280;5651;50.926;4.718;2023-02-10T10:54:21;103680.81;;;5.23;100.00
11190;BME280;5651;50.926;4.718;2023-02-10T10:57:10;103687.66;;;5.36;100.00
11190;BME280;5651;50.926;4.718;2023-02-10T10:59:39;103681.75;;;5.52;100.00
11190;BME280;5651;50.926;4.718;2023-02-10T11:02:16;103685.41;;;5.56;100.00
11190;BME280;5651;50.926;4.718;2023-02-10T11:04:42;103679.53;;;5.72;100.00
11190;BME280;5651;50.926;4.718;2023-02-10T11:07:12;103683.22;;;5.91;100.00
11190;BME280;5651;50.926;4.718;2023-02-10T11:09:49;103681.50;;;6.05;100.00
11190;BME280;5651;50.926;4.718;2023-02-10T11:12:40;103662.53;;;6.19;100.00
11190;BME280;5651;50.926;4.718;2023-02-10T11:17:57;103645.47;;;6.53;100.00
11190;BME280;5651;50.926;4.718;2023-02-10T11:20:32;103639.47;;;6.69;100.00
11190;BME280;5651;50.926;4.718;2023-02-10T11:23:01;103645.78;;;6.89;99.78
11190;BME280;5651;50.926;4.718;2023-02-10T11:25:34;103640.94;;;6.95;98.96
11190;BME280;5651;50.926;4.718;2023-02-10T11:28:01;103636.84;;;6.98;99.66
11190;BME280;5651;50.926;4.718;2023-02-10T11:32:53;103630.16;;;6.87;100.00
11190;BME280;5651;50.926;4.718;2023-02-10T11:35:19;103634.00;;;6.94;100.00
11190;BME280;5651;50.926;4.718;2023-02-10T11:37:51;103638.59;;;7.00;100.00
11190;BME280;5651;50.926;4.718;2023-02-10T11:40:26;103637.78;;;7.01;100.00
11190;BME280;5651;50.926;4.718;2023-02-10T11:42:55;103631.72;;;7.00;100.00
11190;BME280;5651;50.926;4.718;2023-02-10T11:45:27;103638.97;;;7.22;100.00
11190;BME280;5651;50.926;4.718;2023-02-10T11:48:05;103639.25;;;7.43;99.38
11190;BME280;5651;50.926;4.718;2023-02-10T11:50:35;103641.63;;;7.55;98.63
11190;BME280;5651;50.926;4.718;2023-02-10T11:53:02;103632.53;;;7.47;99.37
11190;BME280;5651;50.926;4.718;2023-02-10T11:55:35;103639.53;;;7.65;98.82
11190;BME280;5651;50.926;4.718;2023-02-10T12:00:54;103627.03;;;7.74;98.06
11190;BME280;5651;50.926;4.718;2023-02-10T12:17:27;103627.19;;;8.28;96.43
11190;BME280;5651;50.926;4.718;2023-02-10T12:20:37;103614.56;;;8.36;97.07
11190;BME280;5651;50.926;4.718;2023-02-10T12:34:07;103599.13;;;10.32;91.34
11190;BME280;5651;50.926;4.718;2023-02-10T12:42:47;103597.34;;;11.19;90.19
11190;BME280;5651;50.926;4.718;2023-02-10T12:45:43;103592.28;;;11.23;87.42
11190;BME280;5651;50.926;4.718;2023-02-10T12:54:00;103567.81;;;11.96;85.74
11190;BME280;5651;50.926;4.718;2023-02-10T12:56:39;103570.28;;;11.91;85.14
11190;BME280;5651;50.926;4.718;2023-02-10T12:59:18;103570.69;;;11.78;86.05
11190;BME280;5651;50.926;4.718;2023-02-10T13:01:59;103573.28;;;11.52;85.64
11190;BME280;5651;50.926;4.718;2023-02-10T13:04:33;103573.44;;;11.08;86.38
11190;BME280;5651;50.926;4.718;2023-02-10T13:07:08;103566.63;;;11.12;86.36
11190;BME280;5651;50.926;4.718;2023-02-10T13:10:15;103567.22;;;10.82;84.09
11190;BME280;5651;50.926;4.718;2023-02-10T13:12:38;103552.34;;;11.02;83.28
11190;BME280;5651;50.926;4.718;2023-02-10T13:17:44;103557.09;;;11.36;83.88
11190;BME280;5651;50.926;4.718;2023-02-10T13:23:06;103565.81;;;11.87;79.86
11190;BME280;5651;50.926;4.718;2023-02-10T13:28:27;103570.06;;;11.85;84.24
11190;BME280;5651;50.926;4.718;2023-02-10T13:36:18;103555.00;;;11.52;83.43
11190;BME280;5651;50.926;4.718;2023-02-10T13:38:59;103565.78;;;11.61;81.29
11190;BME280;5651;50.926;4.718;2023-02-10T13:41:33;103557.84;;;11.58;79.73
11190;BME280;5651;50.926;4.718;2023-02-10T13:44:29;103553.25;;;11.04;81.24
11190;BME280;5651;50.926;4.718;2023-02-10T13:47:24;103552.63;;;10.87;78.84
11190;BME280;5651;50.926;4.718;2023-02-10T13:50:25;103561.03;;;10.57;81.63
11190;BME280;5651;50.926;4.718;2023-02-10T13:57:58;103553.50;;;10.21;82.43
11190;BME280;5651;50.926;4.718;2023-02-10T14:00:30;103561.84;;;10.12;83.69
11190;BME280;5651;50.926;4.718;2023-02-10T14:03:03;103548.59;;;10.28;84.69
11190;BME280;5651;50.926;4.718;2023-02-10T14:05:34;103540.41;;;10.63;84.45
11190;BME280;5651;50.926;4.718;2023-02-10T14:08:12;103552.22;;;10.53;81.81
11190;BME280;5651;50.926;4.718;2023-02-10T14:10:38;103554.78;;;10.52;82.91
11190;BME280;5651;50.926;4.718;2023-02-10T14:13:20;103553.03;;;10.52;81.48
11190;BME280;5651;50.926;4.718;2023-02-10T14:16:06;103554.84;;;10.11;83.56
11190;BME280;5651;50.926;4.718;2023-02-10T14:18:38;103551.34;;;10.10;84.07
11190;BME280;5651;50.926;4.718;2023-02-10T14:21:11;103555.53;;;9.86;83.46
11190;BME280;5651;50.926;4.718;2023-02-10T14:23:40;103555.53;;;9.86;84.36
11190;BME280;5651;50.926;4.718;2023-02-10T14:26:13;103559.22;;;9.91;83.22
11190;BME280;5651;50.926;4.718;2023-02-10T14:28:41;103553.31;;;9.74;83.59
11190;BME280;5651;50.926;4.718;2023-02-10T14:31:17;103549.47;;;9.65;83.98
11190;BME280;5651;50.926;4.718;2023-02-10T14:33:57;103544.13;;;9.62;84.44
11190;BME280;5651;50.926;4.718;2023-02-10T14:36:23;103546.06;;;9.66;84.44
11190;BME280;5651;50.926;4.718;2023-02-10T14:38:56;103536.94;;;9.57;84.70
11190;BME280;5651;50.926;4.718;2023-02-10T14:41:23;103538.34;;;9.70;84.89
11190;BME280;5651;50.926;4.718;2023-02-10T14:43:50;103537.59;;;9.72;84.79
11190;BME280;5651;50.926;4.718;2023-02-10T14:46:23;103540.53;;;10.01;84.31
11190;BME280;5651;50.926;4.718;2023-02-10T14:49:18;103540.59;;;10.03;83.77
11190;BME280;5651;50.926;4.718;2023-02-10T14:51:43;103547.31;;;9.97;82.57
11190;BME280;5651;50.926;4.718;2023-02-10T14:54:35;103549.28;;;9.82;82.92
11190;BME280;5651;50.926;4.718;2023-02-10T14:57:11;103549.00;;;9.55;83.44
11190;BME280;5651;50.926;4.718;2023-02-10T14:59:37;103549.28;;;9.41;83.35
11190;BME280;5651;50.926;4.718;2023-02-10T15:02:16;103541.19;;;9.35;83.42
11190;BME280;5651;50.926;4.718;2023-02-10T15:04:44;103546.69;;;9.02;84.68
11190;BME280;5651;50.926;4.718;2023-02-10T15:07:16;103551.22;;;8.88;85.20
11190;BME280;5651;50.926;4.718;2023-02-10T15:09:44;103558.13;;;8.87;83.93
11190;BME280;5651;50.926;4.718;2023-02-10T15:12:12;103551.78;;;8.81;83.83
11190;BME280;5651;50.926;4.718;2023-02-10T15:17:18;103562.00;;;8.78;85.32